الصفحة الرئيسية
METAR-TAF:

METAR-TAF

مطار :

ميندوزا, الأرجنتين

دائرة عرض: 32-50S, خط طول: 068-47W, ارتفاع: 705 متر

مراقبة الطقس الحالي

تاريخ ووقت الإصدار 1ساعة و 30 دقيقة قبل الساعة 09:00UTC
ريح 7 عقدة من الجنوب
درجة الحرارة
ضغط 1012 hPa
الرؤية 10 كم أو أكثر

METAR: SAME 140900Z 18007KT 9999 BKN04519/12 Q1012

زمن: 07:30 (10:30 UTC)

توقعات

تاريخ ووقت الإصدار 5ساعات و 30 دقيقة قبل الساعة 05:00UTC
التوقعات صالحة من14 الساعة 06 UTC إلى 15 الساعة 06 UTC
ريح 5 عقدة من الغرب/الجنوب الغربي
الرؤية 10 كم أو أكثر
الغيوم لا تقل 1500 م ولا وجود لمزنة ركامية السحاب الأسود

TAF: SAME 140500Z 1406/1506 25005KT CAVOK TN16/1410Z TX26/1420Z

أرصاد الطقس والتوقعات من أكثر من 4000 مطار (تقارير الطقس للمطار METAR والتنبؤ بالطقس بالمطارTAF).

المحطات المتاحة هي النقط الصفراء والحمراء على الخريطة.

حرك المؤشر فوق النقطة لمعرفة اسم المحطة.

ثم انقر لمعرفة أرصاد وتوقعات الطقس.

لتغيير الخارطة: اضغط على الأزرار الخضراء مع رمز الصليب الأسود للتكبير. على الزر الأخضر مع شرطة للتصغير، أو على الأسهم الخضراء للخرائط المجاورة.


METAR-TAF: